createdAt,value
2017-09-15T00:06:42.790Z,1004.882
2017-09-15T00:18:28.808Z,1005.030
2017-09-15T00:21:12.434Z,1005.077
2017-09-15T00:41:37.215Z,1005.353
2017-09-15T00:44:20.832Z,1005.446
2017-09-15T00:47:14.589Z,1005.462
2017-09-15T01:11:59.708Z,1005.733
2017-09-15T01:14:43.316Z,1005.769
2017-09-15T01:45:52.121Z,1006.273
2017-09-15T02:07:25.627Z,1006.512
2017-09-15T02:25:01.926Z,1006.819
2017-09-15T02:41:53.053Z,1006.900
2017-09-15T02:45:21.906Z,1007.001
2017-09-15T03:10:20.725Z,1007.472
2017-09-15T03:13:04.401Z,1007.495
2017-09-15T03:35:56.051Z,1007.853
2017-09-15T03:38:39.696Z,1007.920
2017-09-15T04:27:58.645Z,1008.493
2017-09-15T04:30:42.213Z,1008.536
2017-09-15T04:48:17.426Z,1008.744
2017-09-15T05:07:01.510Z,1009.108
2017-09-15T05:09:45.107Z,1009.172
2017-09-15T05:32:02.710Z,1009.507
2017-09-15T05:35:42.845Z,1009.625
2017-09-15T05:40:09.726Z,1009.655
2017-09-15T05:51:00.155Z,1009.757
2017-09-15T05:59:45.405Z,1009.896
2017-09-15T06:03:25.766Z,1009.951
2017-09-15T06:10:53.587Z,1010.218
2017-09-15T06:27:10.936Z,1010.325
2017-09-15T06:34:37.217Z,1010.438
2017-09-15T06:37:21.119Z,1010.460
2017-09-15T06:40:15.104Z,1010.515
2017-09-15T06:43:54.894Z,1010.660
2017-09-15T06:46:41.184Z,1010.681
2017-09-15T06:56:45.396Z,1010.805
2017-09-15T06:59:29.157Z,1010.799
2017-09-15T07:02:23.205Z,1010.869
2017-09-15T07:18:06.216Z,1011.003
2017-09-15T07:20:49.994Z,1011.012
2017-09-15T07:26:10.885Z,1011.161
2017-09-15T07:28:55.415Z,1011.159
2017-09-15T07:31:49.638Z,1011.211
2017-09-15T07:37:56.485Z,1011.368
2017-09-15T07:40:40.776Z,1011.416
2017-09-15T07:43:35.009Z,1011.447
2017-09-15T07:46:29.800Z,1011.533
2017-09-15T07:49:24.625Z,1011.490
2017-09-15T07:52:53.597Z,1011.590
2017-09-15T08:04:09.139Z,1011.721
2017-09-15T08:06:52.995Z,1011.772
2017-09-15T08:09:47.004Z,1011.793
2017-09-15T08:12:41.645Z,1011.778
2017-09-15T08:15:36.465Z,1011.803
2017-09-15T08:18:31.396Z,1011.807
2017-09-15T08:21:26.411Z,1011.814
2017-09-15T08:24:21.442Z,1011.834
2017-09-15T08:27:16.526Z,1011.893
2017-09-15T08:30:11.680Z,1011.898
2017-09-15T08:33:06.722Z,1011.983
2017-09-15T08:36:01.823Z,1011.989
2017-09-15T08:38:56.901Z,1012.008
2017-09-15T08:41:51.882Z,1012.039
2017-09-15T08:44:47.071Z,1012.077
2017-09-15T08:47:42.081Z,1012.025
2017-09-15T08:50:37.132Z,1012.005
2017-09-15T08:53:32.265Z,1012.034
2017-09-15T08:56:27.402Z,1012.000
2017-09-15T08:59:22.782Z,1012.028
2017-09-15T09:02:17.986Z,1012.067
2017-09-15T09:05:13.294Z,1012.078
2017-09-15T09:08:08.473Z,1011.957
2017-09-15T09:11:03.758Z,1011.897
2017-09-15T09:13:59.118Z,1011.938
2017-09-15T09:16:54.478Z,1012.015
2017-09-15T09:19:49.570Z,1012.016
2017-09-15T09:25:40.011Z,1012.000
2017-09-15T09:28:35.145Z,1012.051
2017-09-15T09:31:30.493Z,1012.093
2017-09-15T09:34:25.747Z,1012.134
2017-09-15T09:37:21.210Z,1012.062
2017-09-15T09:40:16.682Z,1012.059
2017-09-15T09:43:12.143Z,1011.992
2017-09-15T09:46:07.938Z,1011.953
2017-09-15T09:49:03.368Z,1011.983
2017-09-15T09:51:58.958Z,1011.965
2017-09-15T09:54:54.550Z,1011.980
2017-09-15T09:57:50.113Z,1011.864
2017-09-15T10:00:45.707Z,1011.849
2017-09-15T10:03:41.384Z,1011.798
2017-09-15T10:09:32.779Z,1011.727
2017-09-15T10:12:28.292Z,1011.601
2017-09-15T10:15:23.718Z,1011.645
2017-09-15T10:18:19.406Z,1011.653
2017-09-15T10:21:15.051Z,1011.705
2017-09-15T10:24:10.672Z,1011.735
2017-09-15T10:27:06.168Z,1011.826
2017-09-15T10:30:01.534Z,1011.787
2017-09-15T10:32:56.768Z,1011.843
2017-09-15T10:35:52.199Z,1011.882
2017-09-15T10:38:47.425Z,1011.846
2017-09-15T10:41:42.662Z,1011.874
2017-09-15T10:44:37.991Z,1011.817
2017-09-15T10:47:33.166Z,1011.847
2017-09-15T10:50:28.384Z,1011.940
2017-09-15T10:56:18.851Z,1011.980
2017-09-15T10:59:13.935Z,1011.991
2017-09-15T11:02:09.141Z,1011.945
2017-09-15T11:05:04.400Z,1011.942
2017-09-15T11:07:59.665Z,1011.914
2017-09-15T11:10:54.757Z,1011.965
2017-09-15T11:13:49.949Z,1011.942
2017-09-15T11:16:45.113Z,1012.042
2017-09-15T11:19:40.349Z,1012.043
2017-09-15T11:22:35.617Z,1012.026
2017-09-15T11:25:30.674Z,1012.054
2017-09-15T11:28:25.878Z,1012.043
2017-09-15T11:31:21.061Z,1012.084
2017-09-15T11:34:16.204Z,1012.069
2017-09-15T11:37:11.434Z,1012.031
2017-09-15T11:40:06.597Z,1012.041
2017-09-15T11:43:01.869Z,1011.942
2017-09-15T11:45:56.921Z,1012.020
2017-09-15T11:48:52.081Z,1011.991
2017-09-15T11:51:47.202Z,1012.096
2017-09-15T11:54:42.691Z,1012.103
2017-09-15T11:57:37.853Z,1012.038
2017-09-15T12:00:32.963Z,1012.040
2017-09-15T12:03:28.301Z,1012.043
2017-09-15T12:06:23.425Z,1012.003
2017-09-15T12:09:18.622Z,1012.061
2017-09-15T12:12:13.740Z,1012.026
2017-09-15T12:15:08.771Z,1012.007
2017-09-15T12:18:03.808Z,1012.011
2017-09-15T12:20:59.022Z,1011.952
2017-09-15T12:23:54.325Z,1011.958
2017-09-15T12:26:49.465Z,1011.947
2017-09-15T12:29:44.529Z,1011.904
2017-09-15T12:32:40.027Z,1011.912
2017-09-15T12:35:35.070Z,1011.897
2017-09-15T12:41:25.924Z,1011.840
2017-09-15T12:44:21.050Z,1011.802
2017-09-15T12:47:16.162Z,1011.746
2017-09-15T12:50:11.198Z,1011.733
2017-09-15T12:53:06.424Z,1011.763
2017-09-15T12:56:01.557Z,1011.726
2017-09-15T12:58:56.874Z,1011.714
2017-09-15T13:01:52.063Z,1011.635
2017-09-15T13:04:47.334Z,1011.671
2017-09-15T13:07:42.458Z,1011.696
2017-09-15T13:10:37.746Z,1011.646
2017-09-15T13:16:27.942Z,1011.598
2017-09-15T13:22:18.254Z,1011.510
2017-09-15T13:25:13.403Z,1011.514
2017-09-15T13:28:08.634Z,1011.543
2017-09-15T13:31:03.818Z,1011.542
2017-09-15T13:33:59.053Z,1011.555
2017-09-15T13:36:54.240Z,1011.569
2017-09-15T13:39:49.359Z,1011.550
2017-09-15T13:42:44.458Z,1011.552
2017-09-15T13:48:34.849Z,1011.487
2017-09-15T13:51:29.941Z,1011.409
2017-09-15T13:54:25.051Z,1011.450
2017-09-15T13:57:20.169Z,1011.490
2017-09-15T14:00:15.439Z,1011.453
2017-09-15T14:03:10.528Z,1011.469
2017-09-15T14:06:05.675Z,1011.499
2017-09-15T14:09:00.884Z,1011.502
2017-09-15T14:11:56.020Z,1011.504
2017-09-15T14:14:51.160Z,1011.428
2017-09-15T14:17:46.322Z,1011.393
2017-09-15T14:20:41.462Z,1011.416
2017-09-15T14:23:36.646Z,1011.408
2017-09-15T14:26:31.738Z,1011.449
2017-09-15T14:29:26.963Z,1011.426
2017-09-15T14:32:22.191Z,1011.551
2017-09-15T14:35:17.394Z,1011.877
2017-09-15T14:38:12.527Z,1011.910
2017-09-15T14:41:07.648Z,1011.999
2017-09-15T14:44:02.764Z,1011.956
2017-09-15T14:46:57.866Z,1011.893
2017-09-15T14:49:52.974Z,1011.810
2017-09-15T14:52:48.078Z,1011.719
2017-09-15T14:55:43.325Z,1011.659
2017-09-15T14:58:38.357Z,1011.510
2017-09-15T15:01:33.559Z,1011.529
2017-09-15T15:04:28.744Z,1011.518
2017-09-15T15:12:06.344Z,1011.417
2017-09-15T15:14:50.605Z,1011.421
2017-09-15T15:17:45.065Z,1011.386
2017-09-15T15:20:39.883Z,1011.396
2017-09-15T15:23:34.850Z,1011.328
2017-09-15T15:26:29.908Z,1011.303
2017-09-15T15:29:24.991Z,1011.268
2017-09-15T15:32:20.079Z,1011.249
2017-09-15T15:35:15.157Z,1011.235
2017-09-15T15:38:10.363Z,1011.236
2017-09-15T15:41:05.479Z,1011.233
2017-09-15T15:44:00.540Z,1011.235
2017-09-15T15:46:55.719Z,1011.241
2017-09-15T15:49:50.776Z,1011.256
2017-09-15T15:52:45.935Z,1011.251
2017-09-15T15:55:41.049Z,1011.219
2017-09-15T15:58:36.209Z,1011.211
2017-09-15T16:01:31.296Z,1011.242
2017-09-15T16:05:22.819Z,1011.240
2017-09-15T16:08:08.891Z,1011.205
2017-09-15T16:11:03.660Z,1011.184
2017-09-15T16:13:58.730Z,1011.167
2017-09-15T16:16:53.823Z,1011.134
2017-09-15T16:19:48.825Z,1011.115
2017-09-15T16:22:43.902Z,1011.131
2017-09-15T16:25:39.008Z,1011.149
2017-09-15T16:28:34.113Z,1011.142
2017-09-15T16:31:29.200Z,1011.135
2017-09-15T16:34:24.240Z,1011.148
2017-09-15T16:37:19.333Z,1011.182
2017-09-15T16:40:14.401Z,1011.128
2017-09-15T16:43:09.511Z,1011.136
2017-09-15T16:46:04.727Z,1011.149
2017-09-15T16:48:59.868Z,1011.165
2017-09-15T16:51:54.935Z,1011.151
2017-09-15T16:54:49.975Z,1011.148
2017-09-15T16:57:45.036Z,1011.138
2017-09-15T17:00:40.102Z,1011.150
2017-09-15T17:03:35.166Z,1011.166
2017-09-15T17:06:30.350Z,1011.155
2017-09-15T17:12:20.516Z,1011.173
2017-09-15T17:15:15.524Z,1011.183
2017-09-15T17:21:05.726Z,1011.181
2017-09-15T17:24:00.876Z,1011.214
2017-09-15T17:26:55.874Z,1011.249
2017-09-15T17:29:50.940Z,1011.260
2017-09-15T17:32:46.064Z,1011.300
2017-09-15T17:35:41.162Z,1011.282
2017-09-15T17:38:36.174Z,1011.343
2017-09-15T17:41:31.122Z,1011.385
2017-09-15T17:44:26.233Z,1011.417
2017-09-15T17:47:21.422Z,1011.445
2017-09-15T17:50:16.395Z,1011.510
2017-09-15T17:53:11.476Z,1011.546
2017-09-15T17:56:06.466Z,1011.563
2017-09-15T17:59:01.505Z,1011.578
2017-09-15T18:01:56.621Z,1011.602
2017-09-15T18:04:51.577Z,1011.624
2017-09-15T18:07:46.657Z,1011.663
2017-09-15T18:10:41.735Z,1011.699
2017-09-15T18:13:36.783Z,1011.694
2017-09-15T18:16:31.851Z,1011.708
2017-09-15T18:19:26.930Z,1011.737
2017-09-15T18:22:22.014Z,1011.762
2017-09-15T18:25:16.905Z,1011.780
2017-09-15T18:28:11.990Z,1011.789
2017-09-15T18:31:07.249Z,1011.773
2017-09-15T18:37:37.006Z,1011.810
2017-09-15T18:40:21.290Z,1011.807
2017-09-15T18:43:15.581Z,1011.797
2017-09-15T18:46:10.272Z,1011.784
2017-09-15T18:58:07.633Z,1011.786
2017-09-15T19:00:51.515Z,1011.761
2017-09-15T19:03:45.493Z,1011.728
2017-09-15T19:06:40.044Z,1011.718
2017-09-15T19:16:44.392Z,1011.731
2017-09-15T19:19:28.303Z,1011.707
2017-09-15T19:22:22.278Z,1011.706
2017-09-15T19:25:16.840Z,1011.726
2017-09-15T19:28:11.552Z,1011.674
2017-09-15T19:38:21.848Z,1011.620
2017-09-15T19:41:15.932Z,1011.645
2017-09-15T19:44:10.542Z,1011.667
2017-09-15T19:47:05.402Z,1011.658
2017-09-15T19:50:00.431Z,1011.651
2017-09-15T19:52:55.328Z,1011.659
2017-09-15T19:58:17.169Z,1011.667
2017-09-15T20:01:01.765Z,1011.671
2017-09-15T20:03:56.205Z,1011.702
2017-09-15T20:06:50.968Z,1011.700
2017-09-15T20:09:45.822Z,1011.707
2017-09-15T20:21:48.783Z,1011.655
2017-09-15T20:24:42.851Z,1011.701
2017-09-15T20:27:37.471Z,1011.688
2017-09-15T20:30:32.242Z,1011.725
2017-09-15T20:33:27.072Z,1011.707
2017-09-15T20:36:21.964Z,1011.685
2017-09-15T20:44:21.997Z,1011.673
2017-09-15T20:47:05.998Z,1011.664
2017-09-15T20:50:00.159Z,1011.685
2017-09-15T20:52:54.860Z,1011.693
2017-09-15T20:55:49.681Z,1011.686
2017-09-15T20:58:44.530Z,1011.715
2017-09-15T21:03:09.844Z,1011.776
2017-09-15T21:05:54.859Z,1011.778
2017-09-15T21:09:00.765Z,1011.759
2017-09-15T21:14:40.254Z,1011.824
2017-09-15T21:17:24.605Z,1011.852
2017-09-15T21:20:18.956Z,1011.874
2017-09-15T21:23:13.695Z,1011.896
2017-09-15T21:30:39.790Z,1011.890
2017-09-15T21:33:23.828Z,1011.867
2017-09-15T21:42:07.360Z,1011.811
2017-09-15T21:45:02.293Z,1011.840
2017-09-15T21:53:36.324Z,1011.763
2017-09-15T21:56:20.154Z,1011.734
2017-09-15T21:59:14.290Z,1011.766
2017-09-15T22:02:08.749Z,1011.747
2017-09-15T22:07:30.519Z,1011.629
2017-09-15T22:10:15.065Z,1011.603
2017-09-15T22:13:09.417Z,1011.558
2017-09-15T22:16:26.685Z,1011.488
2017-09-15T22:22:26.799Z,1011.445
2017-09-15T22:25:11.065Z,1011.396
2017-09-15T22:28:05.389Z,1011.424
2017-09-15T22:31:00.228Z,1011.419
2017-09-15T22:33:54.835Z,1011.407
2017-09-15T22:44:21.703Z,1011.393
2017-09-15T22:47:05.438Z,1011.368
2017-09-15T22:49:59.411Z,1011.346
2017-09-15T22:52:53.820Z,1011.380
2017-09-15T23:01:16.334Z,1011.511
2017-09-15T23:04:00.245Z,1011.538
2017-09-15T23:06:54.452Z,1011.562
2017-09-15T23:09:49.007Z,1011.589
2017-09-15T23:23:22.090Z,1011.691
2017-09-15T23:26:15.936Z,1011.723
2017-09-15T23:36:19.812Z,1011.755
2017-09-15T23:39:03.629Z,1011.751
2017-09-15T23:41:57.517Z,1011.748
2017-09-15T23:44:51.998Z,1011.753
2017-09-15T23:47:46.801Z,1011.754
2017-09-15T23:59:32.763Z,1011.816
